sensor_id;sensor_type;location;lat;lon;timestamp;pressure;altitude;pressure_sealevel;temperature;humidity
10948;BME280;5526;42.070;24.752;2022-09-20T00:02:22;98790.78;;;15.87;56.12
10948;BME280;5526;42.070;24.752;2022-09-20T00:04:49;98797.38;;;15.89;56.37
10948;BME280;5526;42.070;24.752;2022-09-20T00:07:17;98789.63;;;15.93;55.97
10948;BME280;5526;42.070;24.752;2022-09-20T00:09:44;98790.97;;;15.90;55.87
10948;BME280;5526;42.070;24.752;2022-09-20T00:12:11;98792.75;;;15.95;55.70
10948;BME280;5526;42.070;24.752;2022-09-20T00:14:40;98798.06;;;15.95;55.81
10948;BME280;5526;42.070;24.752;2022-09-20T00:17:07;98783.25;;;15.94;55.93
10948;BME280;5526;42.070;24.752;2022-09-20T00:19:35;98778.22;;;15.92;55.58
10948;BME280;5526;42.070;24.752;2022-09-20T00:22:02;98770.72;;;15.94;55.66
10948;BME280;5526;42.070;24.752;2022-09-20T00:24:29;98768.00;;;15.99;55.48
10948;BME280;5526;42.070;24.752;2022-09-20T00:26:56;98771.72;;;15.98;55.60
10948;BME280;5526;42.070;24.752;2022-09-20T00:29:23;98777.72;;;16.04;55.05
10948;BME280;5526;42.070;24.752;2022-09-20T00:31:52;98793.47;;;16.00;54.91
10948;BME280;5526;42.070;24.752;2022-09-20T00:34:19;98785.50;;;16.00;55.11
10948;BME280;5526;42.070;24.752;2022-09-20T00:37:04;98793.19;;;16.02;54.77
10948;BME280;5526;42.070;24.752;2022-09-20T00:39:31;98795.72;;;16.07;54.57
10948;BME280;5526;42.070;24.752;2022-09-20T00:41:58;98800.75;;;16.08;54.40
10948;BME280;5526;42.070;24.752;2022-09-20T00:44:48;98809.28;;;16.05;54.44
10948;BME280;5526;42.070;24.752;2022-09-20T00:47:29;98812.84;;;16.01;54.82
10948;BME280;5526;42.070;24.752;2022-09-20T00:50:05;98813.19;;;15.94;55.19
10948;BME280;5526;42.070;24.752;2022-09-20T00:52:34;98825.78;;;15.89;55.53
10948;BME280;5526;42.070;24.752;2022-09-20T00:55:05;98826.94;;;15.83;56.08
10948;BME280;5526;42.070;24.752;2022-09-20T00:57:34;98820.84;;;15.82;56.13
10948;BME280;5526;42.070;24.752;2022-09-20T01:00:07;98821.06;;;15.86;55.93
10948;BME280;5526;42.070;24.752;2022-09-20T01:02:38;98835.72;;;15.83;55.86
10948;BME280;5526;42.070;24.752;2022-09-20T01:05:08;98821.13;;;15.67;56.44
10948;BME280;5526;42.070;24.752;2022-09-20T01:07:36;98820.75;;;15.74;56.44
10948;BME280;5526;42.070;24.752;2022-09-20T01:10:04;98826.09;;;15.69;56.98
10948;BME280;5526;42.070;24.752;2022-09-20T01:12:32;98835.72;;;15.65;56.69
10948;BME280;5526;42.070;24.752;2022-09-20T01:15:02;98823.63;;;15.59;57.34
10948;BME280;5526;42.070;24.752;2022-09-20T01:17:32;98816.53;;;15.54;57.78
10948;BME280;5526;42.070;24.752;2022-09-20T01:20:21;98819.41;;;15.39;58.75
10948;BME280;5526;42.070;24.752;2022-09-20T01:22:59;98813.06;;;15.40;59.02
10948;BME280;5526;42.070;24.752;2022-09-20T01:25:47;98798.91;;;15.26;59.26
10948;BME280;5526;42.070;24.752;2022-09-20T01:28:18;98805.38;;;15.20;59.81
10948;BME280;5526;42.070;24.752;2022-09-20T01:30:48;98804.16;;;15.13;60.58
10948;BME280;5526;42.070;24.752;2022-09-20T01:33:24;98803.16;;;15.09;60.57
10948;BME280;5526;42.070;24.752;2022-09-20T01:35:56;98810.25;;;15.13;60.31
10948;BME280;5526;42.070;24.752;2022-09-20T01:38:34;98812.59;;;14.96;61.15
10948;BME280;5526;42.070;24.752;2022-09-20T01:41:10;98807.72;;;15.03;60.74
10948;BME280;5526;42.070;24.752;2022-09-20T01:43:45;98807.00;;;14.98;60.98
10948;BME280;5526;42.070;24.752;2022-09-20T01:46:23;98807.28;;;14.96;61.13
10948;BME280;5526;42.070;24.752;2022-09-20T01:49:01;98801.06;;;14.87;61.52
10948;BME280;5526;42.070;24.752;2022-09-20T01:55:14;98810.94;;;14.82;62.21
10948;BME280;5526;42.070;24.752;2022-09-20T01:58:17;98812.75;;;14.86;62.24
10948;BME280;5526;42.070;24.752;2022-09-20T02:04:07;98817.25;;;14.86;61.02
10948;BME280;5526;42.070;24.752;2022-09-20T02:06:51;98806.50;;;14.77;61.74
10948;BME280;5526;42.070;24.752;2022-09-20T02:09:48;98815.03;;;14.74;62.04
10948;BME280;5526;42.070;24.752;2022-09-20T02:15:32;98826.91;;;14.53;64.73
10948;BME280;5526;42.070;24.752;2022-09-20T02:18:13;98833.50;;;14.32;66.47
10948;BME280;5526;42.070;24.752;2022-09-20T02:20:51;98822.47;;;14.25;66.93
10948;BME280;5526;42.070;24.752;2022-09-20T02:23:27;98832.44;;;14.33;66.94
10948;BME280;5526;42.070;24.752;2022-09-20T02:26:10;98832.41;;;14.38;67.19
10948;BME280;5526;42.070;24.752;2022-09-20T02:28:52;98828.59;;;14.21;68.12
10948;BME280;5526;42.070;24.752;2022-09-20T02:31:38;98824.34;;;14.20;68.64
10948;BME280;5526;42.070;24.752;2022-09-20T02:34:28;98826.78;;;14.16;69.16
10948;BME280;5526;42.070;24.752;2022-09-20T02:37:11;98831.59;;;14.09;69.64
10948;BME280;5526;42.070;24.752;2022-09-20T02:39:50;98828.41;;;14.12;69.67
10948;BME280;5526;42.070;24.752;2022-09-20T02:42:27;98832.13;;;14.11;69.63
10948;BME280;5526;42.070;24.752;2022-09-20T02:45:01;98829.84;;;14.00;70.00
10948;BME280;5526;42.070;24.752;2022-09-20T02:47:32;98835.31;;;14.08;69.57
10948;BME280;5526;42.070;24.752;2022-09-20T02:50:16;98842.50;;;14.03;69.53
10948;BME280;5526;42.070;24.752;2022-09-20T02:52:53;98857.66;;;13.97;68.86
10948;BME280;5526;42.070;24.752;2022-09-20T02:55:33;98852.53;;;14.06;68.81
10948;BME280;5526;42.070;24.752;2022-09-20T02:58:13;98849.16;;;14.00;68.80
10948;BME280;5526;42.070;24.752;2022-09-20T03:00:51;98853.69;;;13.95;68.71
10948;BME280;5526;42.070;24.752;2022-09-20T03:03:25;98858.72;;;13.96;68.61
10948;BME280;5526;42.070;24.752;2022-09-20T03:06:03;98855.06;;;13.92;68.58
10948;BME280;5526;42.070;24.752;2022-09-20T03:08:36;98855.06;;;13.92;68.92
10948;BME280;5526;42.070;24.752;2022-09-20T03:11:12;98850.22;;;13.99;68.52
10948;BME280;5526;42.070;24.752;2022-09-20T03:14:01;98848.91;;;13.97;68.66
10948;BME280;5526;42.070;24.752;2022-09-20T03:16:43;98852.41;;;13.92;68.67
10948;BME280;5526;42.070;24.752;2022-09-20T03:19:18;98830.50;;;13.87;68.79
10948;BME280;5526;42.070;24.752;2022-09-20T03:21:58;98848.41;;;13.95;68.73
10948;BME280;5526;42.070;24.752;2022-09-20T03:24:38;98844.94;;;13.99;67.55
10948;BME280;5526;42.070;24.752;2022-09-20T03:27:15;98851.81;;;14.00;67.08
10948;BME280;5526;42.070;24.752;2022-09-20T03:29:56;98844.19;;;13.94;66.65
10948;BME280;5526;42.070;24.752;2022-09-20T03:32:40;98844.19;;;13.94;67.07
10948;BME280;5526;42.070;24.752;2022-09-20T03:35:22;98848.09;;;14.01;66.52
10948;BME280;5526;42.070;24.752;2022-09-20T03:38:13;98848.41;;;13.95;65.66
10948;BME280;5526;42.070;24.752;2022-09-20T03:40:59;98858.53;;;13.88;65.10
10948;BME280;5526;42.070;24.752;2022-09-20T03:43:51;98824.31;;;13.68;64.70
10948;BME280;5526;42.070;24.752;2022-09-20T03:46:25;98850.84;;;13.86;64.74
10948;BME280;5526;42.070;24.752;2022-09-20T03:52:08;98850.09;;;13.81;64.74
10948;BME280;5526;42.070;24.752;2022-09-20T03:55:05;98853.56;;;13.81;64.72
10948;BME280;5526;42.070;24.752;2022-09-20T03:57:47;98851.41;;;13.83;64.23
10948;BME280;5526;42.070;24.752;2022-09-20T04:00:22;98877.41;;;13.76;64.34
10948;BME280;5526;42.070;24.752;2022-09-20T04:05:56;98844.25;;;13.84;63.58
10948;BME280;5526;42.070;24.752;2022-09-20T04:08:44;98845.81;;;13.90;62.98
10948;BME280;5526;42.070;24.752;2022-09-20T04:11:19;98848.19;;;13.91;62.34
10948;BME280;5526;42.070;24.752;2022-09-20T04:13:55;98850.44;;;14.03;62.17
10948;BME280;5526;42.070;24.752;2022-09-20T04:16:34;98865.78;;;14.06;60.83
10948;BME280;5526;42.070;24.752;2022-09-20T04:19:11;98870.00;;;14.07;60.51
10948;BME280;5526;42.070;24.752;2022-09-20T04:21:45;98872.31;;;14.13;60.43
10948;BME280;5526;42.070;24.752;2022-09-20T04:24:20;98871.75;;;14.16;59.82
10948;BME280;5526;42.070;24.752;2022-09-20T04:26:55;98875.69;;;14.19;59.81
10948;BME280;5526;42.070;24.752;2022-09-20T04:29:32;98870.66;;;14.22;59.50
10948;BME280;5526;42.070;24.752;2022-09-20T04:32:10;98874.03;;;14.28;59.06
10948;BME280;5526;42.070;24.752;2022-09-20T04:34:43;98883.88;;;14.27;58.28
10948;BME280;5526;42.070;24.752;2022-09-20T04:37:32;98878.56;;;14.27;57.95
10948;BME280;5526;42.070;24.752;2022-09-20T04:40:13;98889.31;;;14.36;57.53
10948;BME280;5526;42.070;24.752;2022-09-20T04:43:20;98894.81;;;14.44;56.96
10948;BME280;5526;42.070;24.752;2022-09-20T04:46:27;98889.72;;;14.48;56.72
10948;BME280;5526;42.070;24.752;2022-09-20T04:49:25;98900.00;;;14.54;56.77
10948;BME280;5526;42.070;24.752;2022-09-20T04:58:40;98912.06;;;14.89;55.73
10948;BME280;5526;42.070;24.752;2022-09-20T05:01:36;98910.22;;;14.89;54.88
10948;BME280;5526;42.070;24.752;2022-09-20T05:13:30;98923.63;;;14.74;56.92
10948;BME280;5526;42.070;24.752;2022-09-20T05:16:04;98914.28;;;15.00;56.52
10948;BME280;5526;42.070;24.752;2022-09-20T05:19:15;98924.22;;;15.13;55.97
10948;BME280;5526;42.070;24.752;2022-09-20T05:22:13;98910.53;;;15.25;55.05
10948;BME280;5526;42.070;24.752;2022-09-20T05:25:07;98907.03;;;15.11;55.42
10948;BME280;5526;42.070;24.752;2022-09-20T05:27:44;98911.31;;;15.07;55.74
10948;BME280;5526;42.070;24.752;2022-09-20T05:30:21;98905.06;;;14.98;55.98
10948;BME280;5526;42.070;24.752;2022-09-20T05:33:03;98927.16;;;15.12;55.95
10948;BME280;5526;42.070;24.752;2022-09-20T05:35:42;98912.63;;;15.09;56.85
10948;BME280;5526;42.070;24.752;2022-09-20T05:38:17;98920.56;;;15.09;57.61
10948;BME280;5526;42.070;24.752;2022-09-20T05:41:02;98913.28;;;14.96;59.16
10948;BME280;5526;42.070;24.752;2022-09-20T05:43:33;98932.34;;;14.98;59.59
10948;BME280;5526;42.070;24.752;2022-09-20T05:46:13;98933.31;;;15.07;57.89
10948;BME280;5526;42.070;24.752;2022-09-20T05:48:52;98927.94;;;15.12;56.83
10948;BME280;5526;42.070;24.752;2022-09-20T05:51:34;98947.72;;;15.20;55.80
10948;BME280;5526;42.070;24.752;2022-09-20T05:54:20;98938.53;;;15.12;55.52
10948;BME280;5526;42.070;24.752;2022-09-20T05:56:56;98937.34;;;15.47;54.82
10948;BME280;5526;42.070;24.752;2022-09-20T05:59:36;98937.25;;;15.52;53.32
10948;BME280;5526;42.070;24.752;2022-09-20T06:02:23;98942.00;;;15.55;52.62
10948;BME280;5526;42.070;24.752;2022-09-20T06:05:00;98948.59;;;15.76;52.59
10948;BME280;5526;42.070;24.752;2022-09-20T06:07:42;98943.31;;;16.08;51.89
10948;BME280;5526;42.070;24.752;2022-09-20T06:10:42;98955.28;;;16.24;51.50
10948;BME280;5526;42.070;24.752;2022-09-20T06:13:28;98949.94;;;16.10;50.99
10948;BME280;5526;42.070;24.752;2022-09-20T06:16:02;98957.84;;;15.97;50.51
10948;BME280;5526;42.070;24.752;2022-09-20T06:18:35;98953.69;;;15.72;50.90
10948;BME280;5526;42.070;24.752;2022-09-20T06:21:15;98954.31;;;15.83;50.24
10948;BME280;5526;42.070;24.752;2022-09-20T06:23:48;98946.69;;;16.13;50.29
10948;BME280;5526;42.070;24.752;2022-09-20T06:26:18;98950.78;;;16.38;48.55
10948;BME280;5526;42.070;24.752;2022-09-20T06:28:49;98959.13;;;16.63;48.04
10948;BME280;5526;42.070;24.752;2022-09-20T06:31:18;98958.56;;;16.34;47.60
10948;BME280;5526;42.070;24.752;2022-09-20T06:33:51;98963.25;;;16.05;47.72
10948;BME280;5526;42.070;24.752;2022-09-20T06:36:23;98966.41;;;16.26;47.42
10948;BME280;5526;42.070;24.752;2022-09-20T06:39:15;98972.81;;;15.88;47.22
10948;BME280;5526;42.070;24.752;2022-09-20T06:42:05;98970.97;;;15.88;46.97
10948;BME280;5526;42.070;24.752;2022-09-20T06:44:35;98973.06;;;15.91;47.56
10948;BME280;5526;42.070;24.752;2022-09-20T06:47:06;98974.75;;;15.64;48.18
10948;BME280;5526;42.070;24.752;2022-09-20T06:49:34;98967.25;;;15.71;47.51
10948;BME280;5526;42.070;24.752;2022-09-20T06:52:05;98969.19;;;16.02;47.64
10948;BME280;5526;42.070;24.752;2022-09-20T06:54:35;98970.22;;;16.01;47.32
10948;BME280;5526;42.070;24.752;2022-09-20T06:57:04;98967.81;;;16.05;47.65
10948;BME280;5526;42.070;24.752;2022-09-20T06:59:32;98971.50;;;16.04;47.08
10948;BME280;5526;42.070;24.752;2022-09-20T07:01:59;98974.41;;;16.39;46.50
10948;BME280;5526;42.070;24.752;2022-09-20T07:04:26;98968.66;;;16.64;45.34
10948;BME280;5526;42.070;24.752;2022-09-20T07:06:59;98967.41;;;16.75;44.80
10948;BME280;5526;42.070;24.752;2022-09-20T07:09:27;98972.22;;;16.60;43.57
10948;BME280;5526;42.070;24.752;2022-09-20T07:11:55;98977.84;;;16.58;44.24
10948;BME280;5526;42.070;24.752;2022-09-20T07:14:24;98988.19;;;16.41;44.58
10948;BME280;5526;42.070;24.752;2022-09-20T07:16:51;98984.47;;;16.42;44.33
10948;BME280;5526;42.070;24.752;2022-09-20T07:19:19;98988.97;;;16.87;43.17
10948;BME280;5526;42.070;24.752;2022-09-20T07:21:47;98982.88;;;16.73;43.16
10948;BME280;5526;42.070;24.752;2022-09-20T07:24:14;98981.81;;;16.88;42.63
10948;BME280;5526;42.070;24.752;2022-09-20T07:26:55;98975.91;;;17.05;42.81
10948;BME280;5526;42.070;24.752;2022-09-20T07:29:23;98983.78;;;16.96;42.81
10948;BME280;5526;42.070;24.752;2022-09-20T07:31:51;98985.94;;;16.94;42.32
10948;BME280;5526;42.070;24.752;2022-09-20T07:34:19;98980.31;;;16.82;41.37
10948;BME280;5526;42.070;24.752;2022-09-20T07:36:46;98970.19;;;16.70;41.02
10948;BME280;5526;42.070;24.752;2022-09-20T07:39:13;98981.41;;;16.94;40.96
10948;BME280;5526;42.070;24.752;2022-09-20T07:41:41;98981.81;;;17.29;41.21
10948;BME280;5526;42.070;24.752;2022-09-20T07:44:11;98990.28;;;17.58;40.67
10948;BME280;5526;42.070;24.752;2022-09-20T07:46:50;98974.03;;;17.46;40.58
10948;BME280;5526;42.070;24.752;2022-09-20T07:49:18;98961.22;;;17.83;39.92
10948;BME280;5526;42.070;24.752;2022-09-20T07:51:46;98971.84;;;18.19;39.87
10948;BME280;5526;42.070;24.752;2022-09-20T07:54:13;98981.66;;;18.32;39.20
10948;BME280;5526;42.070;24.752;2022-09-20T07:56:41;98975.75;;;17.99;38.61
10948;BME280;5526;42.070;24.752;2022-09-20T07:59:08;98974.16;;;18.12;39.25
10948;BME280;5526;42.070;24.752;2022-09-20T08:01:37;98983.78;;;17.86;39.05
10948;BME280;5526;42.070;24.752;2022-09-20T08:04:05;98969.28;;;18.14;39.69
10948;BME280;5526;42.070;24.752;2022-09-20T08:06:35;98981.47;;;18.50;39.13
10948;BME280;5526;42.070;24.752;2022-09-20T08:09:02;98981.44;;;18.42;39.50
10948;BME280;5526;42.070;24.752;2022-09-20T08:11:30;98966.34;;;18.37;39.46
10948;BME280;5526;42.070;24.752;2022-09-20T08:13:58;98956.75;;;18.58;39.75
10948;BME280;5526;42.070;24.752;2022-09-20T08:16:27;98972.56;;;18.85;39.41
10948;BME280;5526;42.070;24.752;2022-09-20T08:18:58;98965.44;;;19.11;38.21
10948;BME280;5526;42.070;24.752;2022-09-20T08:21:27;98969.53;;;18.70;38.40
10948;BME280;5526;42.070;24.752;2022-09-20T08:23:56;98956.19;;;19.09;38.58
10948;BME280;5526;42.070;24.752;2022-09-20T08:26:24;98963.38;;;19.47;37.92
10948;BME280;5526;42.070;24.752;2022-09-20T08:28:53;98958.66;;;18.97;38.01
10948;BME280;5526;42.070;24.752;2022-09-20T08:31:24;98965.25;;;18.99;37.71
10948;BME280;5526;42.070;24.752;2022-09-20T08:33:52;98952.88;;;19.03;37.68
10948;BME280;5526;42.070;24.752;2022-09-20T08:36:24;98965.41;;;19.42;37.66
10948;BME280;5526;42.070;24.752;2022-09-20T08:38:52;98954.59;;;19.55;37.49
10948;BME280;5526;42.070;24.752;2022-09-20T08:41:23;98956.66;;;19.84;38.43
10948;BME280;5526;42.070;24.752;2022-09-20T08:43:54;98943.44;;;20.13;38.12
10948;BME280;5526;42.070;24.752;2022-09-20T08:46:24;98951.59;;;20.25;37.33
10948;BME280;5526;42.070;24.752;2022-09-20T08:48:53;98953.19;;;20.26;37.29
10948;BME280;5526;42.070;24.752;2022-09-20T08:51:22;98950.50;;;19.58;37.85
10948;BME280;5526;42.070;24.752;2022-09-20T08:53:55;98959.44;;;19.45;38.25
10948;BME280;5526;42.070;24.752;2022-09-20T08:56:27;98949.38;;;19.42;38.20
10948;BME280;5526;42.070;24.752;2022-09-20T08:58:55;98959.94;;;19.81;37.69
10948;BME280;5526;42.070;24.752;2022-09-20T09:01:25;98959.78;;;19.69;37.77
10948;BME280;5526;42.070;24.752;2022-09-20T09:03:58;98936.09;;;19.84;38.30
10948;BME280;5526;42.070;24.752;2022-09-20T09:06:29;98930.56;;;19.89;37.43
10948;BME280;5526;42.070;24.752;2022-09-20T09:08:58;98927.34;;;19.19;37.49
10948;BME280;5526;42.070;24.752;2022-09-20T09:11:26;98940.75;;;19.45;37.78
10948;BME280;5526;42.070;24.752;2022-09-20T09:13:56;98928.06;;;19.76;37.41
10948;BME280;5526;42.070;24.752;2022-09-20T09:16:27;98949.56;;;20.05;37.19
10948;BME280;5526;42.070;24.752;2022-09-20T09:18:56;98913.41;;;20.33;36.65
10948;BME280;5526;42.070;24.752;2022-09-20T09:21:25;98923.88;;;20.55;36.53
10948;BME280;5526;42.070;24.752;2022-09-20T09:24:02;98925.06;;;20.74;34.91
10948;BME280;5526;42.070;24.752;2022-09-20T09:26:36;98922.84;;;20.05;35.86
10948;BME280;5526;42.070;24.752;2022-09-20T09:29:10;98928.84;;;20.02;35.55
10948;BME280;5526;42.070;24.752;2022-09-20T09:31:40;98923.16;;;20.03;36.49
10948;BME280;5526;42.070;24.752;2022-09-20T09:34:22;98912.44;;;20.46;35.59
10948;BME280;5526;42.070;24.752;2022-09-20T09:36:50;98907.31;;;20.15;35.23
10948;BME280;5526;42.070;24.752;2022-09-20T09:39:24;98897.56;;;20.11;35.60
10948;BME280;5526;42.070;24.752;2022-09-20T09:41:52;98905.91;;;19.92;35.21
10948;BME280;5526;42.070;24.752;2022-09-20T09:44:22;98900.50;;;20.35;34.51
10948;BME280;5526;42.070;24.752;2022-09-20T09:46:50;98902.72;;;20.24;34.64
10948;BME280;5526;42.070;24.752;2022-09-20T09:49:19;98888.00;;;20.10;34.82
10948;BME280;5526;42.070;24.752;2022-09-20T09:52:11;98891.88;;;20.29;34.61
10948;BME280;5526;42.070;24.752;2022-09-20T09:54:45;98893.28;;;20.27;34.55
10948;BME280;5526;42.070;24.752;2022-09-20T09:57:29;98881.59;;;20.48;33.71
10948;BME280;5526;42.070;24.752;2022-09-20T10:00:07;98899.25;;;20.32;33.96
10948;BME280;5526;42.070;24.752;2022-09-20T10:03:04;98894.72;;;20.24;33.91
10948;BME280;5526;42.070;24.752;2022-09-20T10:05:38;98895.38;;;20.59;33.36
10948;BME280;5526;42.070;24.752;2022-09-20T10:08:20;98891.94;;;20.96;33.14
10948;BME280;5526;42.070;24.752;2022-09-20T10:11:03;98881.72;;;20.52;33.43
10948;BME280;5526;42.070;24.752;2022-09-20T10:13:40;98889.91;;;20.55;33.83
10948;BME280;5526;42.070;24.752;2022-09-20T10:16:20;98881.00;;;21.30;34.70
10948;BME280;5526;42.070;24.752;2022-09-20T10:18:58;98887.97;;;21.02;34.66
10948;BME280;5526;42.070;24.752;2022-09-20T10:21:40;98889.38;;;21.49;34.12
10948;BME280;5526;42.070;24.752;2022-09-20T10:24:31;98883.50;;;21.35;32.68
10948;BME280;5526;42.070;24.752;2022-09-20T10:27:17;98884.22;;;21.65;32.85
10948;BME280;5526;42.070;24.752;2022-09-20T10:30:02;98890.88;;;21.38;31.83
10948;BME280;5526;42.070;24.752;2022-09-20T10:32:39;98868.28;;;21.48;32.34
10948;BME280;5526;42.070;24.752;2022-09-20T10:35:21;98885.44;;;21.26;32.32
10948;BME280;5526;42.070;24.752;2022-09-20T10:38:11;98887.56;;;21.41;32.50
10948;BME280;5526;42.070;24.752;2022-09-20T10:40:46;98868.28;;;21.89;32.49
10948;BME280;5526;42.070;24.752;2022-09-20T10:43:45;98870.81;;;21.24;33.21
10948;BME280;5526;42.070;24.752;2022-09-20T10:46:22;98867.81;;;21.25;33.86
10948;BME280;5526;42.070;24.752;2022-09-20T10:49:01;98872.22;;;21.30;34.23
10948;BME280;5526;42.070;24.752;2022-09-20T10:51:37;98877.34;;;21.96;33.25
10948;BME280;5526;42.070;24.752;2022-09-20T10:54:20;98876.56;;;21.34;32.72
10948;BME280;5526;42.070;24.752;2022-09-20T10:56:55;98872.25;;;21.21;33.36
10948;BME280;5526;42.070;24.752;2022-09-20T10:59:38;98877.16;;;20.52;34.43
10948;BME280;5526;42.070;24.752;2022-09-20T11:02:42;98865.47;;;21.24;33.82
10948;BME280;5526;42.070;24.752;2022-09-20T11:05:19;98868.81;;;21.82;34.01
10948;BME280;5526;42.070;24.752;2022-09-20T11:07:55;98861.81;;;22.34;34.09
10948;BME280;5526;42.070;24.752;2022-09-20T11:10:27;98851.06;;;22.22;33.07
10948;BME280;5526;42.070;24.752;2022-09-20T11:12:58;98843.75;;;22.11;32.63
10948;BME280;5526;42.070;24.752;2022-09-20T11:15:31;98826.47;;;22.20;32.47
10948;BME280;5526;42.070;24.752;2022-09-20T11:18:05;98845.28;;;21.26;33.65
10948;BME280;5526;42.070;24.752;2022-09-20T11:20:40;98836.75;;;21.74;34.72
10948;BME280;5526;42.070;24.752;2022-09-20T11:23:12;98839.63;;;22.01;32.83
10948;BME280;5526;42.070;24.752;2022-09-20T11:25:44;98843.25;;;21.85;32.49
10948;BME280;5526;42.070;24.752;2022-09-20T11:28:15;98837.25;;;21.67;32.20
10948;BME280;5526;42.070;24.752;2022-09-20T11:30:53;98833.09;;;21.78;32.58
10948;BME280;5526;42.070;24.752;2022-09-20T11:33:26;98832.03;;;21.50;32.89
10948;BME280;5526;42.070;24.752;2022-09-20T11:35:58;98835.44;;;21.59;33.17
10948;BME280;5526;42.070;24.752;2022-09-20T11:38:31;98823.72;;;21.64;33.21
10948;BME280;5526;42.070;24.752;2022-09-20T11:41:06;98828.31;;;21.63;32.36
10948;BME280;5526;42.070;24.752;2022-09-20T11:43:37;98818.06;;;22.10;33.14
10948;BME280;5526;42.070;24.752;2022-09-20T11:46:11;98822.47;;;21.61;32.25
10948;BME280;5526;42.070;24.752;2022-09-20T11:48:42;98816.75;;;21.71;32.88
10948;BME280;5526;42.070;24.752;2022-09-20T11:51:45;98808.81;;;22.07;32.94
10948;BME280;5526;42.070;24.752;2022-09-20T11:54:30;98812.00;;;21.89;32.67
10948;BME280;5526;42.070;24.752;2022-09-20T11:57:01;98793.69;;;21.91;32.23
10948;BME280;5526;42.070;24.752;2022-09-20T11:59:33;98794.28;;;22.20;32.32
10948;BME280;5526;42.070;24.752;2022-09-20T12:02:11;98799.50;;;22.49;31.89
10948;BME280;5526;42.070;24.752;2022-09-20T12:04:43;98791.66;;;22.68;32.37
10948;BME280;5526;42.070;24.752;2022-09-20T12:07:16;98792.28;;;22.89;31.52
10948;BME280;5526;42.070;24.752;2022-09-20T12:09:50;98792.06;;;22.82;31.29
10948;BME280;5526;42.070;24.752;2022-09-20T12:12:29;98798.28;;;22.47;32.08
10948;BME280;5526;42.070;24.752;2022-09-20T12:14:58;98795.19;;;22.36;31.47
10948;BME280;5526;42.070;24.752;2022-09-20T12:21:10;98791.69;;;22.56;30.90
10948;BME280;5526;42.070;24.752;2022-09-20T12:24:00;98790.59;;;22.97;31.88
10948;BME280;5526;42.070;24.752;2022-09-20T12:26:37;98791.25;;;23.06;30.93
10948;BME280;5526;42.070;24.752;2022-09-20T12:32:30;98787.56;;;22.98;30.86
10948;BME280;5526;42.070;24.752;2022-09-20T12:34:58;98786.28;;;22.80;31.99
10948;BME280;5526;42.070;24.752;2022-09-20T12:37:28;98792.38;;;23.44;30.52
10948;BME280;5526;42.070;24.752;2022-09-20T12:39:55;98783.13;;;22.90;31.29
10948;BME280;5526;42.070;24.752;2022-09-20T12:42:27;98773.44;;;22.74;31.40
10948;BME280;5526;42.070;24.752;2022-09-20T12:44:59;98799.44;;;22.13;31.63
10948;BME280;5526;42.070;24.752;2022-09-20T12:47:29;98778.44;;;22.39;31.85
10948;BME280;5526;42.070;24.752;2022-09-20T12:49:59;98777.88;;;22.22;31.66
10948;BME280;5526;42.070;24.752;2022-09-20T12:52:54;98771.69;;;21.97;31.86
10948;BME280;5526;42.070;24.752;2022-09-20T12:55:46;98769.41;;;23.19;31.04
10948;BME280;5526;42.070;24.752;2022-09-20T12:58:32;98771.06;;;22.84;31.55
10948;BME280;5526;42.070;24.752;2022-09-20T13:01:35;98770.19;;;22.80;31.25
10948;BME280;5526;42.070;24.752;2022-09-20T13:04:48;98773.75;;;22.36;31.32
10948;BME280;5526;42.070;24.752;2022-09-20T13:07:41;98763.00;;;22.36;31.16
10948;BME280;5526;42.070;24.752;2022-09-20T13:10:23;98766.38;;;22.81;30.75
10948;BME280;5526;42.070;24.752;2022-09-20T13:12:58;98754.28;;;22.87;30.75
10948;BME280;5526;42.070;24.752;2022-09-20T13:15:27;98771.75;;;22.69;30.99
10948;BME280;5526;42.070;24.752;2022-09-20T13:17:55;98770.84;;;22.41;31.26
10948;BME280;5526;42.070;24.752;2022-09-20T13:20:27;98769.16;;;22.01;31.96
10948;BME280;5526;42.070;24.752;2022-09-20T13:22:57;98773.72;;;22.12;31.48
10948;BME280;5526;42.070;24.752;2022-09-20T13:25:27;98773.53;;;22.17;30.93
10948;BME280;5526;42.070;24.752;2022-09-20T13:28:01;98776.00;;;22.58;31.11
10948;BME280;5526;42.070;24.752;2022-09-20T13:30:29;98780.59;;;22.58;30.91
10948;BME280;5526;42.070;24.752;2022-09-20T13:33:14;98780.78;;;22.17;31.68
10948;BME280;5526;42.070;24.752;2022-09-20T13:35:43;98783.03;;;22.27;31.37
10948;BME280;5526;42.070;24.752;2022-09-20T13:38:13;98779.66;;;22.30;31.42
10948;BME280;5526;42.070;24.752;2022-09-20T13:40:49;98780.00;;;22.28;31.13
10948;BME280;5526;42.070;24.752;2022-09-20T13:43:24;98776.56;;;22.40;30.77
10948;BME280;5526;42.070;24.752;2022-09-20T13:45:55;98765.25;;;22.34;30.44
10948;BME280;5526;42.070;24.752;2022-09-20T13:48:24;98773.53;;;22.41;30.52
10948;BME280;5526;42.070;24.752;2022-09-20T13:50:52;98783.13;;;22.42;30.44
10948;BME280;5526;42.070;24.752;2022-09-20T13:53:21;98787.06;;;21.76;31.41
10948;BME280;5526;42.070;24.752;2022-09-20T13:55:50;98781.31;;;21.98;31.66
10948;BME280;5526;42.070;24.752;2022-09-20T13:58:20;98761.13;;;22.13;30.86
10948;BME280;5526;42.070;24.752;2022-09-20T14:00:52;98786.94;;;22.17;30.97
10948;BME280;5526;42.070;24.752;2022-09-20T14:03:21;98794.63;;;22.19;30.56
10948;BME280;5526;42.070;24.752;2022-09-20T14:05:50;98781.09;;;22.03;30.99
10948;BME280;5526;42.070;24.752;2022-09-20T14:08:22;98793.56;;;21.75;31.26
10948;BME280;5526;42.070;24.752;2022-09-20T14:11:02;98787.66;;;21.94;30.94
10948;BME280;5526;42.070;24.752;2022-09-20T14:13:34;98783.22;;;21.98;31.07
10948;BME280;5526;42.070;24.752;2022-09-20T14:16:01;98789.66;;;21.85;31.25
10948;BME280;5526;42.070;24.752;2022-09-20T14:18:29;98784.19;;;21.93;31.01
10948;BME280;5526;42.070;24.752;2022-09-20T14:20:56;98781.75;;;21.88;30.99
10948;BME280;5526;42.070;24.752;2022-09-20T14:23:26;98783.06;;;21.50;31.55
10948;BME280;5526;42.070;24.752;2022-09-20T14:26:21;98794.09;;;21.48;31.70